Decoded Metar for SBGO (GOIANIA in BRAZIL) (IATA:GYN) | Meteo·Mobile Aviation Weather
aviador You're here:

SBGO Decoded Metar

GOIANIA in BRAZIL
Report Time2019-01-18 13:00:00
UTC Time2019-01-18 13:21:26
Flight Rules vfr VFR
Wind130° at 12 kt
W.Decomp.*RWY 14: 11.9 kt HW 1.7 kt RCW
W.Rank130° ranks 1
Current wind is above 130° avg. (5.3)
Visibility9999 m
Phenomena:N/A
Clouds:Few 040 Hf
Expected CloudBase > 2,800 ft AGL from Temp-Dew spread
CeilingNone
Temp26°C (ISA +16)
Dew Point19°C (65% RH)
AAT24.9°C
QNH1020 hPa
Density Alt4,341 ft
Elevation2,451 ft
Report Wrong Elevation
Raw Report
SBGO 181300Z 13012KT 110V170 9999 FEW040 26/19 Q1020=

Extra information for SBGO:More info

Metar Taf Metar & Taf Last 4 Metars F.Rules Stats Wind Profile Meteogram Temp Stats Airport Information Weather charts Add Link Nearby VenuesMetar ALERT Operation Metar Decoded Social comments